createdAt,value
2022-12-17T05:20:14.527Z,95.09
2022-12-17T05:21:15.563Z,94.98
2022-12-17T05:22:15.499Z,95.03
2022-12-17T05:23:15.494Z,94.98
2022-12-17T05:24:15.487Z,94.98
2022-12-17T05:25:15.486Z,95.09
2022-12-17T05:26:15.497Z,95.09
2022-12-17T05:27:15.468Z,95.09
2022-12-17T05:28:15.504Z,95.09
2022-12-17T05:29:16.121Z,95.09
2022-12-17T05:30:15.450Z,95.09
2022-12-17T05:31:15.513Z,94.98
2022-12-17T05:32:15.438Z,94.98
2022-12-17T05:33:15.380Z,94.78
2022-12-17T05:34:15.386Z,94.67
2022-12-17T05:35:15.369Z,94.56
2022-12-17T05:36:15.383Z,94.46
2022-12-17T05:37:15.372Z,94.42
2022-12-17T05:38:15.372Z,94.31
2022-12-17T05:39:15.322Z,94.21
2022-12-17T05:40:15.318Z,94.10
2022-12-17T05:41:15.305Z,93.99
2022-12-17T05:42:15.315Z,93.99
2022-12-17T05:43:15.319Z,93.99
2022-12-17T05:44:15.372Z,94.10
2022-12-17T05:45:15.261Z,93.99
2022-12-17T05:46:15.297Z,93.89
2022-12-17T05:47:15.240Z,93.79
2022-12-17T05:48:15.268Z,93.68
2022-12-17T05:49:15.227Z,93.68
2022-12-17T05:50:15.256Z,93.47
2022-12-17T05:51:15.205Z,93.37
2022-12-17T05:52:15.202Z,93.37
2022-12-17T05:53:15.188Z,93.57
2022-12-17T05:54:15.189Z,93.47
2022-12-17T05:55:15.166Z,93.26
2022-12-17T05:56:15.158Z,93.05
2022-12-17T05:57:15.142Z,92.94
2022-12-17T05:58:15.269Z,92.90
2022-12-17T05:59:15.131Z,92.84
2022-12-17T06:00:15.115Z,92.90
2022-12-17T06:01:15.187Z,92.52
2022-12-17T06:02:15.162Z,92.31
2022-12-17T06:03:15.218Z,92.42
2022-12-17T06:04:15.155Z,92.42
2022-12-17T06:05:15.068Z,92.42
2022-12-17T06:06:15.065Z,92.52
2022-12-17T06:07:15.053Z,92.52
2022-12-17T06:08:15.036Z,92.63
2022-12-17T06:09:15.014Z,92.73
2022-12-17T06:10:15.103Z,92.73
2022-12-17T06:11:15.003Z,92.63
2022-12-17T06:12:15.009Z,92.73
2022-12-17T06:13:14.977Z,92.73
2022-12-17T06:14:14.977Z,92.84
2022-12-17T06:15:14.962Z,92.63
2022-12-17T06:16:15.127Z,92.52
2022-12-17T06:17:14.943Z,92.63
2022-12-17T06:18:16.935Z,92.42
2022-12-17T06:19:14.923Z,92.10
2022-12-17T06:20:14.923Z,91.89
2022-12-17T06:21:14.896Z,91.78
2022-12-17T06:22:14.890Z,91.36
2022-12-17T06:23:14.872Z,91.36
2022-12-17T06:24:14.875Z,91.47
2022-12-17T06:25:14.860Z,91.47
2022-12-17T06:26:14.862Z,91.36
2022-12-17T06:27:14.835Z,91.26
2022-12-17T06:28:14.831Z,91.36
2022-12-17T06:29:14.815Z,91.36
2022-12-17T06:30:18.616Z,91.36
2022-12-17T06:31:14.888Z,91.36
2022-12-17T06:32:14.792Z,91.47
2022-12-17T06:33:14.775Z,91.47
2022-12-17T06:34:14.776Z,91.26
2022-12-17T06:35:14.753Z,91.36
2022-12-17T06:36:21.661Z,91.36
2022-12-17T06:37:14.688Z,91.36
2022-12-17T06:38:14.737Z,91.36
2022-12-17T06:39:14.681Z,91.36
2022-12-17T06:40:14.657Z,91.36
2022-12-17T06:41:14.696Z,91.36
2022-12-17T06:42:14.663Z,91.47
2022-12-17T06:43:14.620Z,91.47
2022-12-17T06:44:14.625Z,91.36
2022-12-17T06:45:14.660Z,91.36
2022-12-17T06:46:14.651Z,91.36
2022-12-17T06:47:14.587Z,91.36
2022-12-17T06:48:14.573Z,91.26
2022-12-17T06:49:14.557Z,91.16
2022-12-17T06:50:14.565Z,91.16
2022-12-17T06:51:14.540Z,90.94
2022-12-17T06:52:14.527Z,91.05
2022-12-17T06:53:14.526Z,91.05
2022-12-17T06:54:14.672Z,91.26
2022-12-17T06:55:14.492Z,91.26
2022-12-17T06:56:14.492Z,91.26
2022-12-17T06:57:14.500Z,91.16
2022-12-17T06:58:14.490Z,91.05
2022-12-17T06:59:14.463Z,90.94
2022-12-17T07:00:14.548Z,90.94
2022-12-17T07:01:14.642Z,90.84
2022-12-17T07:02:14.588Z,90.84
2022-12-17T07:03:14.976Z,90.73
2022-12-17T07:04:14.446Z,90.73
2022-12-17T07:05:14.399Z,90.63
2022-12-17T07:06:14.402Z,90.63
2022-12-17T07:07:14.376Z,90.73
2022-12-17T07:08:14.381Z,90.84
2022-12-17T07:09:14.361Z,90.94
2022-12-17T07:10:14.682Z,91.05
2022-12-17T07:11:14.336Z,91.05
2022-12-17T07:12:14.393Z,91.05
2022-12-17T07:13:14.329Z,91.05
2022-12-17T07:14:14.326Z,91.05
2022-12-17T07:15:14.364Z,91.05
2022-12-17T07:16:14.349Z,91.16
2022-12-17T07:17:14.289Z,90.94
2022-12-17T07:18:14.277Z,90.73
2022-12-17T07:19:14.253Z,90.73
2022-12-17T07:20:14.243Z,90.88
2022-12-17T07:21:14.239Z,91.09
2022-12-17T07:22:14.250Z,91.30
2022-12-17T07:23:14.216Z,91.41
2022-12-17T07:24:14.208Z,91.51
2022-12-17T07:25:14.201Z,91.41
2022-12-17T07:26:14.194Z,91.20
2022-12-17T07:27:14.168Z,91.20
2022-12-17T07:28:14.163Z,91.20
2022-12-17T07:29:14.163Z,91.30
2022-12-17T07:30:14.147Z,91.30
2022-12-17T07:31:14.161Z,91.30
2022-12-17T07:32:14.135Z,91.41
2022-12-17T07:33:14.134Z,91.51
2022-12-17T07:34:14.113Z,91.51
2022-12-17T07:35:14.090Z,91.30
2022-12-17T07:36:14.123Z,91.30
2022-12-17T07:37:20.229Z,91.30
2022-12-17T07:38:14.074Z,91.20
2022-12-17T07:39:14.068Z,91.20
2022-12-17T07:40:14.049Z,91.09
2022-12-17T07:41:14.037Z,90.84
2022-12-17T07:42:14.032Z,90.63
2022-12-17T07:43:14.001Z,90.25
2022-12-17T07:44:14.013Z,90.14
2022-12-17T07:45:14.028Z,90.14
2022-12-17T07:46:14.134Z,90.04
2022-12-17T07:47:14.201Z,90.04
2022-12-17T07:48:13.964Z,90.36
2022-12-17T07:49:13.947Z,90.46
2022-12-17T07:50:13.944Z,90.46
2022-12-17T07:51:13.919Z,90.56
2022-12-17T07:52:13.927Z,90.67
2022-12-17T07:53:13.919Z,90.56
2022-12-17T07:54:13.913Z,90.46
2022-12-17T07:55:18.058Z,90.56
2022-12-17T07:56:13.886Z,90.78
2022-12-17T07:57:13.871Z,90.78
2022-12-17T07:58:13.884Z,90.84
2022-12-17T07:59:13.861Z,90.84
2022-12-17T08:00:13.884Z,90.78
2022-12-17T08:01:13.978Z,90.84
2022-12-17T08:02:14.068Z,90.94
2022-12-17T08:03:13.884Z,90.94
2022-12-17T08:04:13.837Z,90.84
2022-12-17T08:05:13.799Z,90.84
2022-12-17T08:06:13.789Z,90.84
2022-12-17T08:07:14.349Z,90.84
2022-12-17T08:08:13.795Z,90.94
2022-12-17T08:09:13.785Z,90.73
2022-12-17T08:10:13.800Z,90.53
2022-12-17T08:11:13.778Z,90.53
2022-12-17T08:12:13.758Z,90.78
2022-12-17T08:13:14.433Z,90.88
2022-12-17T08:14:13.692Z,90.99
2022-12-17T08:15:13.695Z,91.09
2022-12-17T08:16:13.718Z,91.30
2022-12-17T08:17:13.663Z,91.30
2022-12-17T08:18:13.652Z,91.20
2022-12-17T08:19:13.656Z,90.88
2022-12-17T08:20:13.628Z,90.56
2022-12-17T08:21:13.660Z,90.56
2022-12-17T08:22:13.610Z,90.56
2022-12-17T08:23:13.614Z,90.56
2022-12-17T08:24:13.599Z,90.67
2022-12-17T08:25:13.610Z,90.46
2022-12-17T08:26:13.571Z,90.36
2022-12-17T08:27:13.572Z,90.46
2022-12-17T08:28:41.172Z,90.67
2022-12-17T08:29:13.553Z,90.56
2022-12-17T08:30:13.543Z,90.46
2022-12-17T08:31:13.562Z,90.46
2022-12-17T08:32:13.504Z,90.56
2022-12-17T08:33:13.504Z,90.56
2022-12-17T08:34:13.499Z,90.78
2022-12-17T08:35:13.510Z,90.78
2022-12-17T08:36:13.509Z,90.67
2022-12-17T08:37:13.466Z,90.67
2022-12-17T08:38:13.504Z,90.78
2022-12-17T08:39:13.487Z,90.67
2022-12-17T08:40:13.437Z,90.56
2022-12-17T08:41:13.469Z,90.56
2022-12-17T08:42:13.413Z,90.42
2022-12-17T08:43:13.461Z,90.36
2022-12-17T08:44:13.464Z,90.00
2022-12-17T08:45:13.445Z,89.89
2022-12-17T08:46:13.486Z,89.79
2022-12-17T08:47:13.362Z,89.79
2022-12-17T08:48:13.355Z,89.58
2022-12-17T08:49:13.388Z,89.47
2022-12-17T08:50:13.372Z,89.37
2022-12-17T08:51:13.715Z,89.72
2022-12-17T08:52:13.331Z,90.04
2022-12-17T08:53:13.326Z,90.14
2022-12-17T08:54:13.292Z,90.14
2022-12-17T08:55:13.279Z,90.25
2022-12-17T08:56:13.370Z,90.14
2022-12-17T08:57:22.551Z,90.14
2022-12-17T08:58:13.307Z,90.00
2022-12-17T08:59:13.236Z,89.89
2022-12-17T09:00:13.228Z,89.72
2022-12-17T09:01:13.982Z,90.46
2022-12-17T09:02:13.517Z,90.46
2022-12-17T09:03:13.277Z,90.46
2022-12-17T09:04:13.191Z,90.46
2022-12-17T09:05:13.191Z,90.46
2022-12-17T09:06:13.160Z,90.25
2022-12-17T09:07:13.155Z,90.25
2022-12-17T09:08:13.158Z,90.25
2022-12-17T09:09:13.151Z,90.25
2022-12-17T09:10:13.173Z,90.25
2022-12-17T09:11:13.126Z,90.04
2022-12-17T09:12:13.111Z,90.04
2022-12-17T09:13:13.137Z,90.00
2022-12-17T09:14:13.095Z,90.00
2022-12-17T09:15:13.072Z,89.79
2022-12-17T09:16:13.113Z,89.47
2022-12-17T09:17:13.056Z,89.37
2022-12-17T09:18:13.042Z,89.16
2022-12-17T09:19:13.032Z,89.05
2022-12-17T09:20:13.058Z,88.95
2022-12-17T09:21:13.051Z,88.84
2022-12-17T09:22:13.067Z,88.63
2022-12-17T09:23:13.024Z,88.63
2022-12-17T09:24:12.980Z,88.42
2022-12-17T09:25:13.019Z,88.42
2022-12-17T09:26:13.001Z,88.53
2022-12-17T09:27:12.968Z,88.42
2022-12-17T09:28:12.974Z,88.32
2022-12-17T09:29:12.931Z,88.42
2022-12-17T09:30:12.917Z,88.63
2022-12-17T09:31:12.996Z,88.49
2022-12-17T09:32:12.900Z,88.17
2022-12-17T09:33:12.894Z,88.17
2022-12-17T09:34:12.887Z,88.28
2022-12-17T09:35:12.871Z,88.38
2022-12-17T09:36:12.851Z,88.53
2022-12-17T09:37:12.857Z,88.59
2022-12-17T09:38:12.838Z,88.70
2022-12-17T09:39:12.830Z,88.74
2022-12-17T09:40:12.828Z,88.84
2022-12-17T09:41:12.812Z,88.84
2022-12-17T09:42:12.796Z,88.95
2022-12-17T09:43:12.792Z,89.05
2022-12-17T09:44:12.798Z,89.37
2022-12-17T09:45:12.827Z,89.47
2022-12-17T09:46:12.825Z,89.16
2022-12-17T09:47:12.741Z,89.37
2022-12-17T09:48:12.722Z,89.26
2022-12-17T09:49:12.734Z,89.26
2022-12-17T09:50:12.730Z,89.37
2022-12-17T09:51:12.718Z,89.12
2022-12-17T09:52:12.699Z,88.91
2022-12-17T09:53:12.682Z,88.59
2022-12-17T09:54:12.672Z,88.53
2022-12-17T09:55:12.674Z,88.53
2022-12-17T09:56:12.889Z,88.59
2022-12-17T09:57:12.645Z,88.59
2022-12-17T09:58:12.653Z,88.59
2022-12-17T09:59:12.630Z,88.59
2022-12-17T10:00:12.623Z,88.49
2022-12-17T10:01:12.808Z,88.28
2022-12-17T10:02:12.827Z,88.28
2022-12-17T10:03:12.665Z,87.96
2022-12-17T10:04:12.589Z,87.96
2022-12-17T10:05:12.623Z,87.85
2022-12-17T10:06:14.062Z,87.54
2022-12-17T10:07:12.598Z,87.12
2022-12-17T10:08:12.548Z,87.02
2022-12-17T10:09:12.554Z,87.02
2022-12-17T10:10:12.597Z,87.12
2022-12-17T10:11:12.502Z,86.91
2022-12-17T10:12:12.520Z,87.02
2022-12-17T10:13:12.485Z,87.12
2022-12-17T10:14:12.471Z,87.33
2022-12-17T10:15:12.468Z,87.33
2022-12-17T10:16:12.532Z,87.58
2022-12-17T10:17:12.448Z,87.90
2022-12-17T10:18:12.445Z,88.10
2022-12-17T10:19:12.440Z,88.10
2022-12-17T10:20:12.422Z,88.21
2022-12-17T10:21:12.398Z,88.32
2022-12-17T10:22:12.380Z,88.42
2022-12-17T10:23:12.384Z,88.63
2022-12-17T10:24:18.316Z,88.63
2022-12-17T10:25:12.370Z,88.53
2022-12-17T10:26:12.370Z,88.42
2022-12-17T10:27:12.411Z,88.42
2022-12-17T10:28:12.341Z,88.42
2022-12-17T10:29:12.445Z,88.32
2022-12-17T10:30:12.300Z,88.21
2022-12-17T10:31:12.356Z,88.32
2022-12-17T10:32:12.294Z,88.53
2022-12-17T10:33:12.287Z,88.32
2022-12-17T10:34:12.287Z,88.32
2022-12-17T10:35:12.257Z,88.42
2022-12-17T10:36:12.253Z,88.53
2022-12-17T10:37:12.261Z,88.63
2022-12-17T10:38:12.222Z,88.63
2022-12-17T10:39:12.231Z,88.95
2022-12-17T10:40:12.209Z,88.74
2022-12-17T10:41:12.186Z,88.49
2022-12-17T10:42:12.181Z,88.28
2022-12-17T10:43:12.175Z,88.28
2022-12-17T10:44:12.185Z,88.28
2022-12-17T10:45:12.166Z,87.96
2022-12-17T10:46:12.209Z,87.75
2022-12-17T10:47:12.134Z,87.54
2022-12-17T10:48:12.120Z,87.33
2022-12-17T10:49:12.192Z,87.33
2022-12-17T10:50:12.115Z,88.15
2022-12-17T10:51:12.277Z,88.78
2022-12-17T10:52:12.133Z,89.20
2022-12-17T10:53:12.077Z,89.30
2022-12-17T10:54:12.117Z,89.05
2022-12-17T10:55:12.096Z,89.16
2022-12-17T10:56:12.063Z,89.26
2022-12-17T10:57:12.279Z,89.16
2022-12-17T10:58:12.063Z,89.05
2022-12-17T10:59:12.032Z,88.84
2022-12-17T11:00:12.023Z,88.63
2022-12-17T11:01:12.058Z,88.53
2022-12-17T11:02:12.097Z,88.74
2022-12-17T11:03:12.054Z,88.95
2022-12-17T11:04:11.949Z,88.63
2022-12-17T11:05:11.948Z,88.59
2022-12-17T11:06:11.934Z,88.59
2022-12-17T11:07:12.320Z,88.80
2022-12-17T11:08:11.916Z,88.70
2022-12-17T11:09:11.963Z,88.70
2022-12-17T11:10:11.918Z,88.59
2022-12-17T11:11:11.899Z,88.49
2022-12-17T11:12:11.873Z,88.49
2022-12-17T11:13:11.883Z,88.38
2022-12-17T11:14:11.876Z,88.38
2022-12-17T11:15:11.859Z,87.75
2022-12-17T11:16:11.910Z,87.96
2022-12-17T11:17:11.843Z,88.07
2022-12-17T11:18:12.087Z,88.28
2022-12-17T11:19:11.817Z,88.38
2022-12-17T11:20:11.792Z,88.42
2022-12-17T11:21:12.143Z,88.74
2022-12-17T11:22:11.793Z,88.84
2022-12-17T11:23:11.798Z,88.95
2022-12-17T11:24:11.772Z,88.99
2022-12-17T11:25:11.752Z,89.30
2022-12-17T11:26:11.743Z,89.62
2022-12-17T11:27:11.731Z,89.72
2022-12-17T11:28:11.726Z,89.37
2022-12-17T11:29:11.706Z,89.47
2022-12-17T11:30:11.691Z,89.26
2022-12-17T11:31:11.769Z,89.05
2022-12-17T11:32:11.712Z,88.95
2022-12-17T11:33:11.684Z,88.95
2022-12-17T11:34:11.641Z,88.80
2022-12-17T11:35:11.668Z,88.49
2022-12-17T11:36:11.676Z,88.28
2022-12-17T11:37:11.632Z,88.17
2022-12-17T11:38:11.630Z,88.07
2022-12-17T11:39:11.615Z,88.07
2022-12-17T11:40:11.589Z,88.28
2022-12-17T11:41:11.613Z,88.49
2022-12-17T11:42:11.791Z,88.38
2022-12-17T11:43:11.565Z,88.07
2022-12-17T11:44:11.539Z,87.85
2022-12-17T11:45:11.535Z,87.75
2022-12-17T11:46:11.633Z,87.75
2022-12-17T11:47:11.518Z,87.75
2022-12-17T11:48:11.522Z,87.75
2022-12-17T11:49:11.536Z,87.54
2022-12-17T11:50:11.484Z,87.29
2022-12-17T11:51:11.499Z,87.33
2022-12-17T11:52:11.470Z,87.50
2022-12-17T11:53:11.456Z,87.65
2022-12-17T11:54:11.469Z,87.60
2022-12-17T11:55:11.448Z,87.29
2022-12-17T11:56:11.454Z,87.19
2022-12-17T11:57:11.458Z,86.98
2022-12-17T11:58:11.405Z,87.02
2022-12-17T11:59:11.405Z,87.23
2022-12-17T12:00:11.390Z,87.33
2022-12-17T12:01:11.391Z,87.65
2022-12-17T12:02:11.394Z,87.75
2022-12-17T12:03:11.523Z,87.85
2022-12-17T12:04:11.358Z,87.65
2022-12-17T12:05:11.347Z,87.54
2022-12-17T12:06:11.357Z,87.54
2022-12-17T12:07:11.329Z,87.44
2022-12-17T12:08:11.317Z,87.44
2022-12-17T12:09:11.296Z,87.44
2022-12-17T12:10:11.347Z,86.91
2022-12-17T12:11:11.281Z,86.91
2022-12-17T12:12:11.613Z,87.44
2022-12-17T12:13:11.254Z,87.75
2022-12-17T12:14:11.253Z,87.85
2022-12-17T12:15:11.285Z,87.85
2022-12-17T12:16:11.329Z,88.07
2022-12-17T12:17:11.224Z,88.28
2022-12-17T12:18:11.211Z,88.28
2022-12-17T12:19:11.211Z,88.17
2022-12-17T12:20:11.429Z,88.17
2022-12-17T12:21:11.167Z,88.17
2022-12-17T12:22:11.320Z,88.38
2022-12-17T12:23:11.191Z,88.17
2022-12-17T12:24:11.294Z,88.28
2022-12-17T12:25:11.203Z,88.28
2022-12-17T12:26:11.112Z,88.38
2022-12-17T12:27:11.120Z,88.38
2022-12-17T12:28:11.116Z,88.17
2022-12-17T12:29:11.079Z,88.17
2022-12-17T12:30:11.135Z,88.28
2022-12-17T12:31:11.109Z,88.07
2022-12-17T12:32:11.106Z,87.96
2022-12-17T12:33:11.081Z,87.96
2022-12-17T12:34:11.057Z,87.96
2022-12-17T12:35:11.021Z,87.85
2022-12-17T12:36:11.067Z,87.85
2022-12-17T12:37:11.049Z,87.96
2022-12-17T12:38:11.000Z,88.07
2022-12-17T12:39:11.096Z,88.07
2022-12-17T12:40:11.003Z,88.07
2022-12-17T12:41:10.979Z,88.07
2022-12-17T12:42:10.968Z,87.85
2022-12-17T12:43:10.975Z,87.96
2022-12-17T12:44:10.954Z,88.17
2022-12-17T12:45:10.936Z,88.17
2022-12-17T12:46:11.017Z,88.17
2022-12-17T12:47:10.913Z,88.28
2022-12-17T12:48:10.926Z,88.28
2022-12-17T12:49:10.887Z,88.17
2022-12-17T12:50:10.867Z,88.17
2022-12-17T12:51:10.877Z,88.17
2022-12-17T12:52:10.851Z,88.17
2022-12-17T12:53:11.477Z,88.17
2022-12-17T12:54:10.860Z,88.28
2022-12-17T12:55:10.820Z,88.28
2022-12-17T12:56:10.826Z,88.49
2022-12-17T12:57:10.832Z,88.49
2022-12-17T12:58:10.870Z,88.32
2022-12-17T12:59:10.819Z,88.38
2022-12-17T13:00:10.785Z,88.28
2022-12-17T13:01:10.815Z,88.28
2022-12-17T13:02:10.902Z,88.32
2022-12-17T13:03:11.262Z,88.63
2022-12-17T13:04:10.725Z,89.05
2022-12-17T13:05:10.710Z,88.63
2022-12-17T13:06:10.736Z,88.42
2022-12-17T13:07:10.708Z,88.42
2022-12-17T13:08:10.757Z,88.42
2022-12-17T13:09:10.754Z,88.32
2022-12-17T13:10:10.662Z,88.10
2022-12-17T13:11:10.652Z,88.00
2022-12-17T13:12:10.791Z,87.79
2022-12-17T13:13:10.646Z,88.00
2022-12-17T13:14:10.659Z,88.10
2022-12-17T13:15:10.631Z,88.10
2022-12-17T13:16:10.767Z,88.21
2022-12-17T13:17:10.585Z,88.57
2022-12-17T13:18:10.592Z,88.67
2022-12-17T13:19:10.578Z,88.78
2022-12-17T13:20:10.586Z,88.89
2022-12-17T13:21:10.543Z,88.95
2022-12-17T13:22:10.554Z,88.95
2022-12-17T13:23:10.530Z,88.74
2022-12-17T13:24:10.519Z,88.63
2022-12-17T13:25:10.543Z,88.53
2022-12-17T13:26:10.537Z,88.42
2022-12-17T13:27:10.508Z,88.42
2022-12-17T13:28:10.484Z,88.32
2022-12-17T13:29:10.552Z,88.21
2022-12-17T13:30:10.455Z,87.90
2022-12-17T13:31:10.466Z,88.25
2022-12-17T13:32:10.500Z,88.35
2022-12-17T13:33:10.438Z,88.57
2022-12-17T13:34:10.451Z,88.46
2022-12-17T13:35:10.774Z,88.15
2022-12-17T13:36:10.420Z,88.04
2022-12-17T13:37:10.383Z,88.04
2022-12-17T13:38:10.383Z,88.15
2022-12-17T13:39:10.405Z,88.15
2022-12-17T13:40:10.381Z,88.25
2022-12-17T13:41:10.922Z,88.25
2022-12-17T13:42:10.339Z,88.57
2022-12-17T13:43:10.330Z,88.92
2022-12-17T13:44:10.319Z,89.03
2022-12-17T13:45:10.305Z,89.24
2022-12-17T13:46:10.399Z,89.34
2022-12-17T13:47:10.335Z,89.14
2022-12-17T13:48:10.282Z,89.09
2022-12-17T13:49:10.302Z,89.09
2022-12-17T13:50:33.383Z,88.89
2022-12-17T13:51:10.243Z,88.89
2022-12-17T13:52:12.109Z,88.89
2022-12-17T13:53:10.229Z,88.67
2022-12-17T13:54:10.253Z,88.78
2022-12-17T13:55:10.206Z,88.89
2022-12-17T13:56:10.225Z,88.99
2022-12-17T13:57:10.220Z,89.09
2022-12-17T13:58:10.180Z,89.20
2022-12-17T13:59:10.185Z,89.30
2022-12-17T14:00:10.165Z,89.45
2022-12-17T14:01:10.194Z,89.41
2022-12-17T14:02:10.213Z,89.41
2022-12-17T14:03:10.194Z,89.41
2022-12-17T14:04:10.156Z,89.09
2022-12-17T14:05:10.094Z,88.71
2022-12-17T14:06:10.093Z,89.49
2022-12-17T14:07:10.104Z,90.65
2022-12-17T14:08:10.118Z,91.00
2022-12-17T14:09:10.055Z,91.42
2022-12-17T14:10:10.177Z,91.64
2022-12-17T14:11:10.037Z,91.53
2022-12-17T14:12:10.159Z,91.32
2022-12-17T14:13:10.036Z,91.28
2022-12-17T14:14:10.022Z,91.17
2022-12-17T14:15:09.993Z,91.07
2022-12-17T14:16:10.115Z,91.07
2022-12-17T14:17:10.053Z,91.07
2022-12-17T14:18:10.009Z,91.07
2022-12-17T14:19:10.943Z,91.49
2022-12-17T14:20:09.954Z,91.49
2022-12-17T14:21:09.933Z,91.28
2022-12-17T14:22:09.941Z,91.42
2022-12-17T14:23:09.933Z,91.53
2022-12-17T14:24:09.923Z,91.64
2022-12-17T14:25:09.924Z,91.91
2022-12-17T14:26:09.888Z,92.02
2022-12-17T14:27:09.889Z,91.81
2022-12-17T14:28:09.888Z,91.60
2022-12-17T14:29:09.892Z,91.39
2022-12-17T14:30:09.852Z,91.13
2022-12-17T14:31:27.277Z,90.92
2022-12-17T14:32:09.915Z,90.71
2022-12-17T14:33:09.827Z,90.61
2022-12-17T14:34:09.814Z,90.29
2022-12-17T14:35:09.807Z,89.98
2022-12-17T14:36:09.805Z,89.87
2022-12-17T14:37:09.780Z,89.76
2022-12-17T14:38:09.804Z,89.76
2022-12-17T14:39:09.794Z,89.87
2022-12-17T14:40:09.775Z,89.87
2022-12-17T14:41:09.735Z,89.87
2022-12-17T14:42:09.741Z,89.87
2022-12-17T14:43:09.747Z,89.87
2022-12-17T14:44:09.723Z,89.87
2022-12-17T14:45:10.601Z,89.91
2022-12-17T14:46:09.840Z,90.01
2022-12-17T14:47:09.683Z,90.12
2022-12-17T14:48:09.685Z,90.23
2022-12-17T14:49:09.657Z,90.33
2022-12-17T14:50:09.657Z,90.33
2022-12-17T14:51:09.641Z,90.23
2022-12-17T14:52:09.803Z,90.08
2022-12-17T14:53:09.634Z,90.19
2022-12-17T15:02:28.179Z,90.44
2022-12-17T15:03:29.070Z,90.55
2022-12-17T15:04:29.028Z,90.55
2022-12-17T15:05:28.966Z,90.75
2022-12-17T15:06:28.955Z,90.75
2022-12-17T15:07:28.958Z,90.75
2022-12-17T15:08:29.405Z,90.86
2022-12-17T15:09:28.946Z,90.86
2022-12-17T15:10:28.929Z,90.65
2022-12-17T15:11:28.904Z,90.33
2022-12-17T15:12:28.905Z,90.44
2022-12-17T15:13:28.898Z,90.69
2022-12-17T15:14:28.904Z,90.75
2022-12-17T15:15:28.865Z,90.86
2022-12-17T15:16:29.001Z,90.69
2022-12-17T15:17:28.853Z,90.58
2022-12-17T15:18:28.834Z,90.80
2022-12-17T15:19:28.864Z,90.90
2022-12-17T15:20:28.869Z,90.69
2022-12-17T15:21:28.805Z,90.80
2022-12-17T15:22:28.799Z,91.00
2022-12-17T15:23:28.786Z,91.22
2022-12-17T15:24:28.777Z,91.32
2022-12-17T15:25:28.755Z,91.68
2022-12-17T15:26:28.813Z,92.31
2022-12-17T15:27:28.810Z,92.77
2022-12-17T15:28:28.717Z,93.05
2022-12-17T15:29:28.760Z,93.26
2022-12-17T15:30:28.726Z,93.15
2022-12-17T15:31:34.965Z,92.84
2022-12-17T15:32:28.748Z,92.84
2022-12-17T15:33:28.727Z,92.73
2022-12-17T15:34:28.759Z,92.58
2022-12-17T15:35:28.699Z,92.58
2022-12-17T15:36:28.712Z,92.58
2022-12-17T15:37:28.679Z,92.38
2022-12-17T15:38:28.692Z,92.16
2022-12-17T15:39:28.699Z,92.06
2022-12-17T15:40:28.687Z,92.16
2022-12-17T15:41:28.713Z,92.06
2022-12-17T15:42:28.710Z,91.85
2022-12-17T15:43:28.621Z,91.85
2022-12-17T15:44:28.753Z,92.06
2022-12-17T15:45:31.116Z,92.27
2022-12-17T15:46:28.658Z,92.23
2022-12-17T15:47:28.607Z,92.27
2022-12-17T15:48:28.626Z,92.38
2022-12-17T15:49:28.610Z,92.23
2022-12-17T15:50:28.567Z,92.02
2022-12-17T15:51:28.544Z,91.96
2022-12-17T15:52:28.539Z,92.06
2022-12-17T15:53:28.553Z,92.12
2022-12-17T15:54:28.536Z,92.16
2022-12-17T15:55:28.497Z,92.23
2022-12-17T15:56:28.492Z,92.27
2022-12-17T15:57:28.481Z,92.38
2022-12-17T15:58:28.480Z,92.48
2022-12-17T15:59:28.460Z,92.58
2022-12-17T16:00:28.462Z,92.58
2022-12-17T16:01:28.592Z,92.58
2022-12-17T16:02:28.620Z,92.58
2022-12-17T16:03:28.489Z,92.58
2022-12-17T16:04:28.413Z,92.58
2022-12-17T16:05:28.434Z,92.94
2022-12-17T16:06:28.401Z,92.94
2022-12-17T16:07:28.367Z,92.94
2022-12-17T16:08:28.409Z,92.84
2022-12-17T16:09:28.514Z,92.84
2022-12-17T16:10:28.363Z,92.63
2022-12-17T16:11:28.325Z,92.27
2022-12-17T16:12:28.322Z,92.16
2022-12-17T16:13:28.272Z,92.16
2022-12-17T16:14:28.254Z,92.27
2022-12-17T16:15:28.391Z,92.27
2022-12-17T16:16:28.286Z,92.38
2022-12-17T16:17:28.205Z,92.38
2022-12-17T16:18:28.209Z,92.38
2022-12-17T16:19:28.219Z,92.27
2022-12-17T16:20:28.254Z,92.16
2022-12-17T16:21:28.243Z,92.16
2022-12-17T16:22:28.232Z,92.16
2022-12-17T16:23:28.208Z,92.06
2022-12-17T16:24:28.251Z,91.96
2022-12-17T16:25:28.261Z,92.02
2022-12-17T16:26:28.187Z,91.81
2022-12-17T16:27:28.207Z,91.85
2022-12-17T16:28:28.162Z,92.06
2022-12-17T16:29:28.189Z,92.06
2022-12-17T16:30:28.156Z,91.96
2022-12-17T16:31:28.163Z,92.27
2022-12-17T16:32:32.967Z,92.48
2022-12-17T16:33:32.562Z,92.38
2022-12-17T16:34:28.104Z,92.52
2022-12-17T16:35:28.086Z,92.41
2022-12-17T16:36:28.095Z,92.41
2022-12-17T16:37:28.060Z,92.73
2022-12-17T16:38:28.051Z,93.19
2022-12-17T16:39:28.040Z,93.51
2022-12-17T16:40:28.032Z,93.83
2022-12-17T16:41:28.105Z,93.93
2022-12-17T16:42:28.093Z,94.29
2022-12-17T16:43:27.996Z,94.19
2022-12-17T16:44:27.990Z,94.71
2022-12-17T16:45:27.973Z,95.03
2022-12-17T16:46:28.050Z,95.14
2022-12-17T16:47:27.992Z,95.35
2022-12-17T16:48:27.958Z,95.24
2022-12-17T16:49:27.941Z,95.45
2022-12-17T16:50:27.922Z,95.24
2022-12-17T16:51:29.189Z,95.03
2022-12-17T16:52:27.911Z,95.03
2022-12-17T16:53:27.905Z,94.93
2022-12-17T16:54:27.890Z,95.03
2022-12-17T16:55:27.885Z,95.14
2022-12-17T16:56:27.896Z,95.50
2022-12-17T16:57:27.844Z,95.67
2022-12-17T16:58:27.855Z,95.67
2022-12-17T16:59:27.862Z,95.77
2022-12-17T17:00:27.883Z,95.87
2022-12-17T17:01:28.015Z,96.13
2022-12-17T17:02:27.991Z,96.45
2022-12-17T17:03:27.899Z,96.66
2022-12-17T17:04:27.794Z,96.97
2022-12-17T17:05:27.775Z,96.97
2022-12-17T17:06:33.196Z,96.81
2022-12-17T17:07:27.760Z,96.91
2022-12-17T17:08:27.805Z,97.02
2022-12-17T17:09:27.733Z,97.65
2022-12-17T17:10:27.745Z,98.22
2022-12-17T17:11:27.719Z,98.54
2022-12-17T17:12:27.724Z,98.75
2022-12-17T17:13:27.688Z,98.86
2022-12-17T17:14:27.678Z,98.86
2022-12-17T17:15:27.666Z,98.92
2022-12-17T17:16:27.757Z,98.81
2022-12-17T17:17:53.996Z,98.49
2022-12-17T17:18:27.697Z,98.39
2022-12-17T17:19:27.659Z,98.60
2022-12-17T17:20:27.702Z,98.60
2022-12-17T17:21:27.641Z,98.60
2022-12-17T17:22:27.692Z,98.49
2022-12-17T17:23:27.589Z,98.49
2022-12-17T17:24:27.591Z,98.49
2022-12-17T17:25:43.839Z,98.39
2022-12-17T17:26:27.582Z,98.07
2022-12-17T17:27:27.552Z,97.75
2022-12-17T17:28:27.542Z,98.22
2022-12-17T17:29:27.525Z,98.65
2022-12-17T17:30:27.515Z,98.43
2022-12-17T17:32:01.200Z,98.54
2022-12-17T17:32:27.576Z,98.65
2022-12-17T17:33:27.500Z,98.33
2022-12-17T17:34:27.483Z,98.22
2022-12-17T17:35:27.462Z,98.33
2022-12-17T17:36:27.472Z,98.33
2022-12-17T17:37:27.460Z,98.54
2022-12-17T17:38:27.664Z,98.65
2022-12-17T17:39:27.484Z,98.49
2022-12-17T17:40:27.413Z,98.18
2022-12-17T17:41:27.420Z,97.65
2022-12-17T17:42:27.459Z,97.55
2022-12-17T17:43:27.397Z,97.33
2022-12-17T17:44:27.400Z,97.29
2022-12-17T17:45:27.376Z,96.87
2022-12-17T17:46:27.457Z,96.77
2022-12-17T17:47:27.348Z,96.13
2022-12-17T17:48:27.339Z,96.34
2022-12-17T17:49:27.334Z,96.77
2022-12-17T17:50:27.317Z,96.77
2022-12-17T17:51:52.385Z,96.77
2022-12-17T17:52:27.366Z,96.66
2022-12-17T17:53:27.343Z,96.09
2022-12-17T17:54:27.263Z,95.92
2022-12-17T17:55:27.257Z,95.56
2022-12-17T17:56:27.245Z,95.35
2022-12-17T17:57:27.270Z,95.24
2022-12-17T17:58:27.225Z,94.82
2022-12-17T17:59:33.205Z,94.71
2022-12-17T18:00:27.235Z,94.51
2022-12-17T18:01:27.403Z,94.19
2022-12-17T18:02:27.433Z,93.77
2022-12-17T18:03:27.324Z,94.02
2022-12-17T18:04:27.184Z,94.44
2022-12-17T18:05:27.149Z,94.86
2022-12-17T18:06:27.147Z,94.97
2022-12-17T18:07:27.929Z,94.97
2022-12-17T18:08:27.120Z,94.97
2022-12-17T18:09:27.115Z,95.07
2022-12-17T18:10:27.104Z,95.33
2022-12-17T18:11:27.164Z,96.17
2022-12-17T18:12:27.123Z,96.17
2022-12-17T18:13:27.107Z,95.96
2022-12-17T18:14:27.370Z,95.86
2022-12-17T18:15:27.170Z,95.96
2022-12-17T18:16:27.145Z,96.00
2022-12-17T18:17:27.135Z,96.43
2022-12-17T18:18:27.075Z,96.75
2022-12-17T18:19:27.064Z,96.95
2022-12-17T18:20:27.009Z,97.27